Time;durP1;ratioP1;P1;durP2;ratioP2;P2;SDS_P1;SDS_P2;PMS_P1;PMS_P2;Temp;Humidity;BMP_temperature;BMP_pressure;BME280_temperature;BME280_humidity;BME280_pressure;Samples;Min_cycle;Max_cycle;Signal;HPM_P1;HPM_P2
2023/01/01 00:00:05;;;;;;;23.90;18.07;;;9.60;99.90;;;;;;5076061;28;20197;-69
2023/01/01 00:02:31;;;;;;;23.77;14.18;;;9.60;99.90;;;;;;5075595;28;20190;-70
2023/01/01 00:04:57;;;;;;;9.68;5.45;;;9.60;99.90;;;;;;5075627;28;20234;-70
2023/01/01 00:07:23;;;;;;;3.83;3.40;;;9.60;99.90;;;;;;5075730;28;20253;-70
2023/01/01 00:12:32;;;;;;;3.92;3.60;;;9.60;99.90;;;;;;5075616;28;20285;-70
2023/01/01 00:14:58;;;;;;;5.57;3.23;;;9.60;99.90;;;;;;5075501;28;20205;-71
2023/01/01 00:17:24;;;;;;;5.97;3.30;;;9.60;99.90;;;;;;5075675;28;20219;-70
2023/01/01 00:19:49;;;;;;;9.57;7.13;;;9.60;99.90;;;;;;5075456;28;20174;-70
2023/01/01 00:22:15;;;;;;;7.77;7.20;;;9.50;99.90;;;;;;5075362;28;20250;-70
2023/01/01 00:24:40;;;;;;;8.43;7.57;;;9.50;99.90;;;;;;5075581;28;20169;-70
2023/01/01 00:27:06;;;;;;;11.13;6.03;;;9.50;99.90;;;;;;5075953;28;20173;-71
2023/01/01 00:29:32;;;;;;;13.50;6.40;;;9.40;99.90;;;;;;5075469;28;20180;-69
2023/01/01 00:31:58;;;;;;;5.80;5.30;;;9.40;99.90;;;;;;5075156;28;20197;-70
2023/01/01 00:34:24;;;;;;;1.98;1.83;;;9.40;99.90;;;;;;5075221;28;20201;-69
2023/01/01 00:36:49;;;;;;;5.17;4.67;;;9.50;99.90;;;;;;5075148;28;20533;-70
2023/01/01 00:39:15;;;;;;;2.80;2.70;;;9.50;99.90;;;;;;5075311;28;20256;-71
2023/01/01 00:41:41;;;;;;;6.60;3.37;;;9.40;99.90;;;;;;5074918;28;20283;-70
2023/01/01 00:44:06;;;;;;;12.33;2.53;;;9.40;99.90;;;;;;5074985;28;20193;-70
2023/01/01 00:46:32;;;;;;;4.43;3.80;;;9.40;99.90;;;;;;5074916;28;20170;-69
2023/01/01 00:48:57;;;;;;;11.57;4.20;;;9.50;99.90;;;;;;5075030;28;20201;-70
2023/01/01 00:51:23;;;;;;;4.83;3.43;;;9.50;99.90;;;;;;5075054;28;20276;-70
2023/01/01 00:53:49;;;;;;;5.67;3.50;;;9.50;99.90;;;;;;5073500;28;20264;-69
2023/01/01 00:56:14;;;;;;;3.70;3.60;;;9.40;99.90;;;;;;5074706;28;20631;-70
2023/01/01 00:58:40;;;;;;;1.47;1.47;;;9.50;99.90;;;;;;5074828;28;20286;-70
2023/01/01 01:01:05;;;;;;;3.90;2.53;;;9.40;99.90;;;;;;5074725;28;20198;-69
2023/01/01 01:03:31;;;;;;;4.90;4.57;;;9.40;99.90;;;;;;5073902;28;20208;-70
2023/01/01 01:06:01;;;;;;;2.73;1.60;;;9.50;99.90;;;;;;5074342;28;20182;-69
2023/01/01 01:08:27;;;;;;;2.10;2.00;;;9.40;99.90;;;;;;5074506;28;20285;-70
2023/01/01 01:10:53;;;;;;;1.08;1.08;;;9.30;99.90;;;;;;5073113;28;20654;-69
2023/01/01 01:13:20;;;;;;;1.40;1.40;;;9.30;99.90;;;;;;5074409;28;20169;-69
2023/01/01 01:15:46;;;;;;;0.90;0.90;;;9.30;99.90;;;;;;5074310;28;20200;-70
2023/01/01 01:18:12;;;;;;;1.35;1.25;;;9.30;99.90;;;;;;5074276;28;20174;-69
2023/01/01 01:20:38;;;;;;;1.53;1.43;;;9.20;99.90;;;;;;5074259;28;20204;-70
2023/01/01 01:23:03;;;;;;;0.93;0.90;;;9.30;99.90;;;;;;5074197;28;20177;-70
2023/01/01 01:25:29;;;;;;;1.63;1.27;;;9.20;99.90;;;;;;5074159;28;20173;-70
2023/01/01 01:27:55;;;;;;;1.60;1.50;;;9.20;99.90;;;;;;5074097;28;20538;-70
2023/01/01 01:30:20;;;;;;;1.07;0.97;;;9.00;99.90;;;;;;5074213;28;20686;-69
2023/01/01 01:32:46;;;;;;;2.57;0.90;;;8.90;99.90;;;;;;5074222;28;20248;-70
2023/01/01 01:35:11;;;;;;;4.53;4.33;;;8.90;99.90;;;;;;5073862;28;20173;-70
2023/01/01 01:37:37;;;;;;;1.07;1.03;;;8.90;99.90;;;;;;5073876;28;20242;-70
2023/01/01 01:40:03;;;;;;;1.80;1.70;;;9.00;99.90;;;;;;5073932;28;20242;-71
2023/01/01 01:42:29;;;;;;;1.05;1.05;;;9.00;99.90;;;;;;5073779;28;20186;-70
2023/01/01 01:45:01;;;;;;;0.60;0.60;;;8.90;99.90;;;;;;5073794;28;20252;-70
2023/01/01 01:47:44;;;;;;;0.57;0.57;;;8.80;99.90;;;;;;5073846;28;20269;-70
2023/01/01 01:50:25;;;;;;;0.77;0.73;;;8.80;99.90;;;;;;5073851;28;20251;-70
2023/01/01 01:53:06;;;;;;;1.40;0.70;;;8.70;99.90;;;;;;5074032;28;20214;-69
2023/01/01 01:55:36;;;;;;;2.13;1.92;;;8.70;99.90;;;;;;5073423;28;20279;-70
2023/01/01 01:58:03;;;;;;;0.70;0.70;;;8.60;99.90;;;;;;5073908;28;20169;-70
2023/01/01 02:00:29;;;;;;;0.50;0.50;;;8.60;99.90;;;;;;5073611;28;20189;-70
2023/01/01 02:02:57;;;;;;;0.70;0.65;;;8.70;99.90;;;;;;5073714;28;20170;-70
2023/01/01 02:05:23;;;;;;;0.70;0.50;;;8.70;99.90;;;;;;5073424;28;20197;-69
2023/01/01 02:07:51;;;;;;;0.50;0.50;;;8.80;99.90;;;;;;5073700;28;20248;-71
2023/01/01 02:10:17;;;;;;;0.60;0.60;;;8.80;99.90;;;;;;5073434;28;20178;-69
2023/01/01 02:12:43;;;;;;;1.10;0.97;;;8.90;99.90;;;;;;5073517;28;20231;-70
2023/01/01 02:15:09;;;;;;;1.80;1.70;;;8.90;99.90;;;;;;5073674;28;20400;-69
2023/01/01 02:18:03;;;;;;;0.45;0.45;;;8.90;99.90;;;;;;5073658;28;20411;-69
2023/01/01 02:20:34;;;;;;;0.32;0.32;;;8.90;99.90;;;;;;5072778;28;20217;-69
2023/01/01 02:23:00;;;;;;;0.30;0.30;;;8.90;99.90;;;;;;5073706;28;20203;-69
2023/01/01 02:25:31;;;;;;;1.40;0.90;;;8.90;99.90;;;;;;5073301;28;20221;-70
2023/01/01 02:28:18;;;;;;;0.80;0.80;;;8.80;99.90;;;;;;5073486;28;20174;-70
2023/01/01 02:30:46;;;;;;;1.40;0.60;;;8.80;99.90;;;;;;5073628;28;20189;-71
2023/01/01 02:33:16;;;;;;;0.30;0.30;;;8.80;99.90;;;;;;5073307;28;20170;-70
2023/01/01 02:35:55;;;;;;;0.70;0.43;;;8.90;99.90;;;;;;5073073;28;20264;-70
2023/01/01 02:38:30;;;;;;;1.00;0.93;;;8.90;99.90;;;;;;5073636;28;20250;-69
2023/01/01 02:41:00;;;;;;;0.73;0.60;;;8.90;99.90;;;;;;5073354;28;20204;-69
2023/01/01 02:43:26;;;;;;;1.15;1.15;;;8.80;99.90;;;;;;5073155;28;20161;-70
2023/01/01 02:45:55;;;;;;;0.60;0.60;;;8.90;99.90;;;;;;5073116;28;20504;-69
2023/01/01 02:48:56;;;;;;;0.40;0.40;;;8.80;99.90;;;;;;5073229;28;20170;-70
2023/01/01 02:51:22;;;;;;;0.55;0.55;;;8.80;99.90;;;;;;5071265;28;20196;-70
2023/01/01 02:54:10;;;;;;;1.77;1.60;;;8.80;99.90;;;;;;5072817;28;20315;-70
2023/01/01 02:56:40;;;;;;;0.57;0.50;;;8.70;99.90;;;;;;5073543;28;20177;-69
2023/01/01 03:02:39;;;;;;;0.77;0.77;;;8.80;99.90;;;;;;5072888;28;20716;-70
2023/01/01 03:05:35;;;;;;;0.40;0.40;;;8.80;99.90;;;;;;5072956;28;20191;-69
2023/01/01 03:08:14;;;;;;;0.30;0.30;;;8.80;99.90;;;;;;5073268;28;20173;-69
2023/01/01 03:11:04;;;;;;;0.40;0.40;;;8.80;99.90;;;;;;5073368;28;20185;-70
2023/01/01 03:13:51;;;;;;;1.45;0.55;;;8.80;99.90;;;;;;5073332;28;20165;-69
2023/01/01 03:16:39;;;;;;;0.30;0.30;;;8.80;99.90;;;;;;5072951;28;20631;-71
2023/01/01 03:19:15;;;;;;;0.30;0.30;;;8.70;99.90;;;;;;5072854;28;20650;-69
2023/01/01 03:21:50;;;;;;;0.70;0.70;;;8.80;99.90;;;;;;5072850;28;20292;-69
2023/01/01 03:24:26;;;;;;;1.38;1.27;;;8.80;99.90;;;;;;5072906;28;20168;-70
2023/01/01 03:26:56;;;;;;;0.75;0.70;;;8.80;99.90;;;;;;5073613;28;20286;-69
2023/01/01 03:29:25;;;;;;;0.60;0.60;;;8.80;99.90;;;;;;5076568;28;20161;-70
2023/01/01 03:31:55;;;;;;;1.08;1.08;;;8.90;99.90;;;;;;5076307;28;20208;-69
2023/01/01 03:34:28;;;;;;;0.52;0.52;;;9.00;99.90;;;;;;5076239;28;20174;-69
2023/01/01 03:36:57;;;;;;;0.30;0.30;;;9.00;99.90;;;;;;5076364;28;20193;-70
2023/01/01 03:39:40;;;;;;;0.40;0.40;;;9.00;99.90;;;;;;5076412;28;20591;-70
2023/01/01 03:42:16;;;;;;;0.30;0.30;;;8.90;99.90;;;;;;5076077;28;20209;-71
2023/01/01 03:45:43;;;;;;;0.50;0.50;;;8.90;99.90;;;;;;5076201;28;20534;-70
2023/01/01 03:48:09;;;;;;;0.40;0.40;;;8.90;99.90;;;;;;5074160;28;20184;-70
2023/01/01 03:50:53;;;;;;;0.40;0.40;;;8.80;99.90;;;;;;5075675;28;20201;-70
2023/01/01 03:53:36;;;;;;;1.40;1.38;;;8.80;99.90;;;;;;5075952;28;20173;-70
2023/01/01 03:56:26;;;;;;;2.35;1.02;;;8.80;99.90;;;;;;5074735;28;20199;-71
2023/01/01 03:58:58;;;;;;;0.30;0.30;;;8.80;99.90;;;;;;5076163;28;20249;-69
2023/01/01 04:01:35;;;;;;;3.17;1.05;;;8.80;99.90;;;;;;5075684;28;20298;-70
2023/01/01 04:04:04;;;;;;;0.60;0.60;;;8.80;99.90;;;;;;5076015;28;20209;-70
2023/01/01 04:06:31;;;;;;;3.50;1.33;;;8.90;99.90;;;;;;5075907;28;20188;-70
2023/01/01 04:08:59;;;;;;;0.40;0.40;;;8.80;99.90;;;;;;5075839;28;20177;-71
2023/01/01 04:14:12;;;;;;;0.40;0.40;;;8.90;99.90;;;;;;5076005;28;20239;-71
2023/01/01 04:16:38;;;;;;;2.40;2.30;;;9.00;99.90;;;;;;5075721;28;20180;-71
2023/01/01 04:19:07;;;;;;;0.60;0.60;;;8.90;99.90;;;;;;5075586;28;20174;-70
2023/01/01 04:21:32;;;;;;;0.30;0.30;;;8.90;99.90;;;;;;5075335;28;20229;-71
2023/01/01 04:23:58;;;;;;;0.77;0.77;;;8.90;99.90;;;;;;5075348;28;20644;-71
2023/01/01 04:26:24;;;;;;;0.30;0.30;;;8.80;99.90;;;;;;5075363;28;20410;-71
2023/01/01 04:28:49;;;;;;;0.30;0.30;;;8.80;99.90;;;;;;5075459;28;20654;-71
2023/01/01 04:31:15;;;;;;;0.50;0.50;;;8.80;99.90;;;;;;5074113;28;20190;-71
2023/01/01 04:33:41;;;;;;;0.30;0.30;;;8.80;99.90;;;;;;5075189;28;20177;-71
2023/01/01 04:36:09;;;;;;;0.57;0.57;;;8.80;99.90;;;;;;5074929;28;20185;-70
2023/01/01 04:38:35;;;;;;;0.30;0.30;;;8.80;99.90;;;;;;5074349;28;20178;-68
2023/01/01 04:41:02;;;;;;;0.52;0.52;;;8.70;99.90;;;;;;5075341;28;20208;-68
2023/01/01 04:43:29;;;;;;;0.40;0.40;;;8.80;99.90;;;;;;5075057;28;20644;-68
2023/01/01 04:46:00;;;;;;;0.40;0.40;;;8.70;99.90;;;;;;5074975;28;20173;-69
2023/01/01 04:48:26;;;;;;;1.02;0.60;;;8.80;99.90;;;;;;5075034;28;20177;-69
2023/01/01 04:50:57;;;;;;;1.35;0.82;;;8.70;99.90;;;;;;5075227;28;20280;-68
2023/01/01 04:53:23;;;;;;;2.70;0.65;;;8.70;99.90;;;;;;5075224;28;20498;-68
2023/01/01 04:55:49;;;;;;;0.60;0.60;;;8.70;99.90;;;;;;5074709;28;20256;-68
2023/01/01 04:58:14;;;;;;;0.30;0.30;;;8.70;99.90;;;;;;5074855;28;20798;-68
2023/01/01 05:00:40;;;;;;;0.50;0.50;;;8.60;99.90;;;;;;5074733;28;20807;-69
2023/01/01 05:03:06;;;;;;;0.40;0.40;;;8.50;99.90;;;;;;5074615;28;20173;-69
2023/01/01 05:05:31;;;;;;;1.23;1.23;;;8.50;99.90;;;;;;5074408;28;20162;-69
2023/01/01 05:07:57;;;;;;;2.80;0.73;;;8.50;99.90;;;;;;5074594;28;20183;-69
2023/01/01 05:10:22;;;;;;;9.63;1.73;;;8.40;99.90;;;;;;5074515;28;20170;-68
2023/01/01 05:12:48;;;;;;;0.30;0.30;;;8.50;99.90;;;;;;5074525;28;20523;-69
2023/01/01 05:15:14;;;;;;;0.80;0.80;;;8.40;99.90;;;;;;5074257;28;20214;-69
2023/01/01 05:17:40;;;;;;;0.30;0.30;;;8.40;99.90;;;;;;5074477;28;20256;-68
2023/01/01 05:20:06;;;;;;;0.60;0.60;;;8.30;99.90;;;;;;5074168;28;20710;-68
2023/01/01 05:22:32;;;;;;;0.85;0.85;;;8.40;99.90;;;;;;5074168;28;20589;-69
2023/01/01 05:24:57;;;;;;;1.37;1.30;;;8.40;99.90;;;;;;5074055;28;20169;-69
2023/01/01 05:27:23;;;;;;;0.40;0.40;;;8.40;99.90;;;;;;5074298;28;20170;-68
2023/01/01 05:29:49;;;;;;;0.37;0.37;;;8.40;99.90;;;;;;5074134;28;20215;-68
2023/01/01 05:32:14;;;;;;;0.53;0.50;;;8.40;99.90;;;;;;5074245;28;20185;-69
2023/01/01 05:34:40;;;;;;;7.33;0.87;;;8.40;99.90;;;;;;5074099;28;20165;-68
2023/01/01 05:37:05;;;;;;;1.23;1.17;;;8.40;99.90;;;;;;5073911;28;20185;-69
2023/01/01 05:39:31;;;;;;;0.40;0.40;;;8.40;99.90;;;;;;5074175;28;20204;-68
2023/01/01 05:41:57;;;;;;;0.73;0.50;;;8.40;99.90;;;;;;5073767;28;20259;-68
2023/01/01 05:44:22;;;;;;;0.40;0.40;;;8.40;99.90;;;;;;5073847;28;20193;-68
2023/01/01 05:46:48;;;;;;;0.53;0.53;;;8.40;99.90;;;;;;5073761;28;20582;-69
2023/01/01 05:49:13;;;;;;;1.10;1.10;;;8.50;99.90;;;;;;5073775;28;20531;-69
2023/01/01 05:51:39;;;;;;;1.33;0.70;;;8.50;99.90;;;;;;5073453;28;20189;-69
2023/01/01 05:54:05;;;;;;;0.83;0.53;;;8.60;99.90;;;;;;5073714;28;20173;-69
2023/01/01 05:56:31;;;;;;;1.75;0.50;;;8.60;99.90;;;;;;5073849;28;20176;-68
2023/01/01 05:58:56;;;;;;;0.60;0.60;;;8.60;99.90;;;;;;5073624;28;20686;-68
2023/01/01 06:01:24;;;;;;;0.40;0.40;;;8.60;99.90;;;;;;5073714;28;20558;-69
2023/01/01 06:03:52;;;;;;;0.40;0.40;;;8.60;99.90;;;;;;5073651;28;20172;-67
2023/01/01 06:06:20;;;;;;;0.30;0.30;;;8.60;99.90;;;;;;5073426;28;20169;-66
2023/01/01 06:08:50;;;;;;;0.30;0.30;;;8.70;99.90;;;;;;5072378;28;20652;-68
2023/01/01 06:11:16;;;;;;;0.80;0.80;;;8.70;99.90;;;;;;5073634;28;20563;-68
2023/01/01 06:13:41;;;;;;;0.40;0.40;;;8.70;99.90;;;;;;5073745;28;20168;-68
2023/01/01 06:16:08;;;;;;;1.70;0.53;;;8.70;99.90;;;;;;5073371;28;20229;-69
2023/01/01 06:18:34;;;;;;;0.95;0.95;;;8.70;99.90;;;;;;5073484;28;20208;-68
2023/01/01 06:21:09;;;;;;;0.57;0.40;;;8.70;99.90;;;;;;5073364;28;20204;-69
2023/01/01 06:23:35;;;;;;;0.82;0.50;;;8.70;99.90;;;;;;5073411;28;20172;-68
2023/01/01 06:26:15;;;;;;;1.23;0.40;;;8.70;99.90;;;;;;5073487;28;20556;-67
2023/01/01 06:28:43;;;;;;;0.30;0.30;;;8.80;99.90;;;;;;5073626;28;20963;-69
2023/01/01 06:31:10;;;;;;;3.13;0.50;;;8.80;99.90;;;;;;5073302;28;20279;-69
2023/01/01 06:33:37;;;;;;;3.17;1.48;;;8.80;99.90;;;;;;5073413;28;20347;-69
2023/01/01 06:36:05;;;;;;;0.30;0.30;;;8.80;99.90;;;;;;5073203;28;20188;-68
2023/01/01 06:38:33;;;;;;;2.67;1.40;;;8.80;99.90;;;;;;5073576;28;20165;-67
2023/01/01 06:41:01;;;;;;;0.40;0.40;;;8.80;99.90;;;;;;5073347;28;20263;-67
2023/01/01 06:43:29;;;;;;;0.60;0.60;;;8.70;99.90;;;;;;5073657;28;20630;-69
2023/01/01 06:45:59;;;;;;;0.30;0.30;;;8.70;99.90;;;;;;5073121;28;20170;-68
2023/01/01 06:48:26;;;;;;;0.30;0.30;;;8.70;99.90;;;;;;5073496;28;20165;-68
2023/01/01 06:50:52;;;;;;;1.50;1.40;;;8.70;99.90;;;;;;5073207;28;20215;-68
2023/01/01 06:53:17;;;;;;;1.83;1.73;;;8.60;99.90;;;;;;5073061;28;20169;-68
2023/01/01 06:55:49;;;;;;;0.73;0.73;;;8.60;99.90;;;;;;5073086;28;20672;-69
2023/01/01 06:58:14;;;;;;;0.30;0.30;;;8.60;99.90;;;;;;5073140;28;20165;-67
2023/01/01 07:00:40;;;;;;;1.10;1.03;;;8.60;99.90;;;;;;5072977;28;20201;-67
2023/01/01 07:03:09;;;;;;;0.30;0.30;;;8.50;99.90;;;;;;5075657;28;20169;-69
2023/01/01 07:05:34;;;;;;;3.45;1.85;;;8.50;99.90;;;;;;5076780;28;20177;-67
2023/01/01 07:08:00;;;;;;;2.97;2.00;;;8.50;99.90;;;;;;5077019;28;20177;-68
2023/01/01 07:10:26;;;;;;;0.30;0.30;;;8.50;99.90;;;;;;5076753;28;20173;-68
2023/01/01 07:12:51;;;;;;;0.40;0.40;;;8.50;99.90;;;;;;5076783;28;20177;-68
2023/01/01 07:15:17;;;;;;;0.50;0.50;;;8.50;99.90;;;;;;5076712;28;20174;-68
2023/01/01 07:17:42;;;;;;;4.43;2.63;;;8.40;99.90;;;;;;5076761;28;20210;-68
2023/01/01 07:20:08;;;;;;;0.50;0.50;;;8.40;99.90;;;;;;5076723;28;20177;-67
2023/01/01 07:22:36;;;;;;;1.10;1.10;;;8.40;99.90;;;;;;5076481;28;20201;-67
2023/01/01 07:25:02;;;;;;;2.20;2.15;;;8.40;99.90;;;;;;5076364;28;20402;-69
2023/01/01 07:27:27;;;;;;;0.30;0.30;;;8.40;99.90;;;;;;5076789;28;20657;-67
2023/01/01 07:29:53;;;;;;;3.27;1.90;;;8.30;99.90;;;;;;5076520;28;20507;-69
2023/01/01 07:32:18;;;;;;;0.40;0.40;;;8.30;99.90;;;;;;5076323;28;20193;-67
2023/01/01 07:34:44;;;;;;;2.20;2.00;;;8.30;99.90;;;;;;5074884;28;20173;-68
2023/01/01 07:37:10;;;;;;;0.40;0.40;;;8.40;99.90;;;;;;5076195;28;20239;-69
2023/01/01 07:39:35;;;;;;;0.47;0.40;;;8.50;99.90;;;;;;5076275;28;20238;-67
2023/01/01 07:42:01;;;;;;;1.00;0.90;;;8.50;99.90;;;;;;5076319;28;20212;-68
2023/01/01 07:44:26;;;;;;;0.87;0.87;;;8.50;99.90;;;;;;5076053;28;20179;-68
2023/01/01 07:47:02;;;;;;;1.00;1.00;;;8.60;99.90;;;;;;5075017;28;20214;-69
2023/01/01 07:49:28;;;;;;;1.17;1.17;;;8.60;99.90;;;;;;5076308;28;20228;-67
2023/01/01 07:51:53;;;;;;;0.80;0.80;;;8.80;99.90;;;;;;5075995;28;20193;-68
2023/01/01 07:54:19;;;;;;;0.53;0.53;;;8.80;99.90;;;;;;5076051;28;20529;-68
2023/01/01 07:56:44;;;;;;;0.40;0.40;;;9.00;99.90;;;;;;5076213;28;20169;-69
2023/01/01 07:59:10;;;;;;;1.60;1.10;;;9.00;99.90;;;;;;5076047;28;20537;-69
2023/01/01 08:01:36;;;;;;;0.60;0.60;;;9.20;99.90;;;;;;5075466;28;20726;-69
2023/01/01 08:04:02;;;;;;;0.77;0.77;;;9.20;99.90;;;;;;5075731;28;20181;-69
2023/01/01 08:06:27;;;;;;;0.43;0.43;;;9.20;99.90;;;;;;5075950;28;20403;-68
2023/01/01 08:08:53;;;;;;;1.07;1.03;;;9.30;99.90;;;;;;5075985;28;20400;-67
2023/01/01 08:11:19;;;;;;;0.70;0.70;;;9.30;99.90;;;;;;5075618;28;20192;-69
2023/01/01 08:13:44;;;;;;;4.73;0.97;;;9.40;99.90;;;;;;5075684;28;20170;-69
2023/01/01 08:16:10;;;;;;;1.23;0.90;;;9.50;99.90;;;;;;5075510;28;20530;-68
2023/01/01 08:18:36;;;;;;;1.10;1.10;;;9.60;99.90;;;;;;5075794;28;20208;-69
2023/01/01 08:21:02;;;;;;;0.80;0.80;;;9.80;99.90;;;;;;5075535;28;20194;-69
2023/01/01 08:23:28;;;;;;;1.10;1.10;;;10.10;99.90;;;;;;5075709;28;20170;-68
2023/01/01 08:25:58;;;;;;;0.70;0.70;;;10.50;99.90;;;;;;5075445;28;20257;-69
2023/01/01 08:28:23;;;;;;;2.55;2.45;;;10.90;99.90;;;;;;5075473;28;20172;-68
2023/01/01 08:30:50;;;;;;;0.67;0.67;;;11.20;99.90;;;;;;5075294;28;20311;-68
2023/01/01 08:33:15;;;;;;;0.60;0.60;;;11.60;99.90;;;;;;5075531;28;20188;-69
2023/01/01 08:35:42;;;;;;;0.80;0.80;;;11.80;99.90;;;;;;5075074;28;20772;-69
2023/01/01 08:38:10;;;;;;;0.70;0.70;;;12.00;99.90;;;;;;5075322;28;20177;-69
2023/01/01 08:40:36;;;;;;;0.83;0.83;;;12.20;99.90;;;;;;5075045;28;20491;-69
2023/01/01 08:43:02;;;;;;;1.20;0.87;;;12.40;99.90;;;;;;5075352;28;20799;-69
2023/01/01 08:45:27;;;;;;;0.90;0.90;;;12.70;99.90;;;;;;5074874;28;20399;-67
2023/01/01 08:47:53;;;;;;;0.77;0.77;;;13.00;99.90;;;;;;5075204;28;20162;-68
2023/01/01 08:50:18;;;;;;;0.70;0.70;;;13.30;99.90;;;;;;5074806;28;20161;-69
2023/01/01 08:52:44;;;;;;;0.40;0.40;;;13.80;99.90;;;;;;5074925;28;20174;-68
2023/01/01 08:55:10;;;;;;;1.03;0.60;;;14.10;99.90;;;;;;5074921;28;20171;-69
2023/01/01 08:57:35;;;;;;;1.40;1.10;;;14.30;99.90;;;;;;5075187;28;20165;-70
2023/01/01 09:00:01;;;;;;;0.90;0.90;;;14.60;99.90;;;;;;5074671;28;20614;-69
2023/01/01 09:02:26;;;;;;;0.87;0.80;;;14.80;99.90;;;;;;5074552;28;20284;-69
2023/01/01 09:04:52;;;;;;;0.60;0.60;;;15.00;99.90;;;;;;5074501;28;20174;-69
2023/01/01 09:07:18;;;;;;;3.93;1.10;;;15.30;99.90;;;;;;5073323;28;20260;-69
2023/01/01 09:09:43;;;;;;;0.60;0.60;;;15.50;99.40;;;;;;5074533;28;20179;-69
2023/01/01 09:12:13;;;;;;;2.27;1.37;;;15.90;98.80;;;;;;5074503;28;20189;-69
2023/01/01 09:14:39;;;;;;;0.97;0.97;;;16.30;97.50;;;;;;5074377;28;20167;-69
2023/01/01 09:17:04;;;;;;;2.10;1.00;;;16.70;95.40;;;;;;5074594;28;20758;-70
2023/01/01 09:19:30;;;;;;;0.87;0.87;;;17.10;95.70;;;;;;5074330;28;20171;-69
2023/01/01 09:21:56;;;;;;;0.60;0.60;;;17.50;94.70;;;;;;5074173;28;20215;-70
2023/01/01 09:24:22;;;;;;;0.50;0.50;;;18.00;94.00;;;;;;5073882;28;20176;-69
2023/01/01 09:26:48;;;;;;;0.80;0.70;;;18.60;92.30;;;;;;5074191;28;20878;-69
2023/01/01 09:29:17;;;;;;;0.87;0.87;;;19.10;92.00;;;;;;5074275;28;20407;-68
2023/01/01 09:31:43;;;;;;;0.70;0.70;;;19.70;90.50;;;;;;5074127;28;20558;-69
2023/01/01 09:34:09;;;;;;;0.57;0.57;;;20.40;90.00;;;;;;5073886;28;20487;-70
2023/01/01 09:36:35;;;;;;;1.53;1.23;;;21.20;87.20;;;;;;5073968;28;20838;-69
2023/01/01 09:39:01;;;;;;;0.70;0.70;;;21.90;84.10;;;;;;5074029;28;20223;-69
2023/01/01 09:41:27;;;;;;;1.87;1.77;;;22.40;82.30;;;;;;5073849;28;20246;-69
2023/01/01 09:43:58;;;;;;;1.23;1.13;;;22.90;78.80;;;;;;5073904;28;20403;-70
2023/01/01 09:46:25;;;;;;;1.13;1.13;;;23.40;75.80;;;;;;5073791;28;20166;-70
2023/01/01 09:48:58;;;;;;;4.63;1.17;;;24.00;72.70;;;;;;5073824;28;20487;-69
2023/01/01 09:51:27;;;;;;;3.37;1.73;;;24.50;69.10;;;;;;5073741;28;20764;-70
2023/01/01 09:54:05;;;;;;;5.03;1.07;;;24.90;67.20;;;;;;5073876;28;20445;-70
2023/01/01 09:56:33;;;;;;;2.20;0.60;;;25.30;63.80;;;;;;5073914;28;20741;-70
2023/01/01 09:58:59;;;;;;;0.83;0.67;;;25.60;60.70;;;;;;5073649;28;20541;-70
2023/01/01 10:01:48;;;;;;;0.80;0.80;;;25.60;59.70;;;;;;5073683;28;21047;-70
2023/01/01 10:04:59;;;;;;;1.43;0.57;;;25.60;59.50;;;;;;5073481;28;20233;-70
2023/01/01 10:07:42;;;;;;;0.40;0.40;;;25.40;57.70;;;;;;5073599;28;20403;-69
2023/01/01 10:10:10;;;;;;;0.60;0.53;;;25.30;57.20;;;;;;5073629;28;20796;-69
2023/01/01 10:13:20;;;;;;;0.90;0.90;;;25.20;58.70;;;;;;5073439;28;20431;-69
2023/01/01 10:15:58;;;;;;;0.87;0.60;;;25.10;59.70;;;;;;5072251;28;20896;-70
2023/01/01 10:18:32;;;;;;;1.63;1.40;;;25.00;59.70;;;;;;5073548;28;20405;-72
2023/01/01 10:21:26;;;;;;;1.73;1.63;;;25.10;59.60;;;;;;5073468;28;20451;-72
2023/01/01 10:24:35;;;;;;;0.77;0.77;;;25.30;59.30;;;;;;5073624;28;20425;-71
2023/01/01 10:27:05;;;;;;;0.90;0.80;;;25.40;59.60;;;;;;5064519;28;20418;-71
2023/01/01 10:29:41;;;;;;;0.57;0.57;;;25.70;59.30;;;;;;5073486;28;20397;-70
2023/01/01 10:32:26;;;;;;;0.67;0.60;;;25.90;58.00;;;;;;5073212;28;20415;-70
2023/01/01 10:34:52;;;;;;;0.50;0.50;;;25.90;58.70;;;;;;5073417;28;20395;-71
2023/01/01 10:37:18;;;;;;;0.60;0.50;;;25.80;57.70;;;;;;5074765;28;20476;-70
2023/01/01 10:39:46;;;;;;;1.03;0.60;;;25.60;58.00;;;;;;5078119;28;20169;-70
2023/01/01 10:42:13;;;;;;;0.40;0.40;;;25.10;58.90;;;;;;5077260;28;20454;-70
2023/01/01 10:44:39;;;;;;;0.70;0.70;;;24.80;59.40;;;;;;5077122;28;20443;-70
2023/01/01 10:47:27;;;;;;;0.30;0.30;;;24.60;59.40;;;;;;5077611;28;20787;-70
2023/01/01 10:49:56;;;;;;;0.37;0.37;;;24.10;59.90;;;;;;5077389;28;20439;-70
2023/01/01 10:52:30;;;;;;;0.40;0.40;;;23.80;60.00;;;;;;5077155;28;20430;-70
2023/01/01 10:54:57;;;;;;;0.80;0.43;;;23.60;61.30;;;;;;5075903;28;21011;-70
2023/01/01 10:57:26;;;;;;;0.40;0.40;;;23.30;61.20;;;;;;5077369;28;20411;-69
2023/01/01 10:59:52;;;;;;;0.40;0.40;;;22.80;62.30;;;;;;5077072;28;20386;-70
2023/01/01 11:02:21;;;;;;;0.90;0.40;;;22.40;62.20;;;;;;5076908;28;20516;-69
2023/01/01 11:04:48;;;;;;;0.70;0.70;;;22.00;63.90;;;;;;5076990;28;20189;-70
2023/01/01 11:07:35;;;;;;;0.60;0.60;;;21.80;65.30;;;;;;5077088;28;20752;-69
2023/01/01 11:10:05;;;;;;;0.40;0.40;;;21.30;63.80;;;;;;5076845;28;20380;-69
2023/01/01 11:12:35;;;;;;;0.40;0.40;;;20.90;65.40;;;;;;5076700;28;20534;-70
2023/01/01 11:15:01;;;;;;;1.17;1.07;;;20.50;68.10;;;;;;5076853;28;20888;-70
2023/01/01 11:17:30;;;;;;;1.33;1.23;;;20.20;67.90;;;;;;5076977;28;20934;-69
2023/01/01 11:19:57;;;;;;;0.60;0.60;;;19.80;68.10;;;;;;5077168;28;20415;-69
2023/01/01 11:22:37;;;;;;;0.40;0.40;;;19.30;71.50;;;;;;5076505;28;20470;-69
2023/01/01 11:25:19;;;;;;;0.40;0.40;;;19.00;72.00;;;;;;5076399;28;20399;-70
2023/01/01 11:27:45;;;;;;;0.40;0.40;;;18.70;71.20;;;;;;5076909;28;20395;-69
2023/01/01 11:30:24;;;;;;;0.50;0.50;;;18.40;70.00;;;;;;5075350;28;20844;-70
2023/01/01 11:32:59;;;;;;;0.30;0.30;;;18.10;69.50;;;;;;5076545;28;20407;-69
2023/01/01 11:35:28;;;;;;;1.03;1.03;;;17.90;73.90;;;;;;5076475;28;20535;-70
2023/01/01 11:37:55;;;;;;;0.97;0.97;;;17.60;72.30;;;;;;5076288;28;20419;-69
2023/01/01 11:40:45;;;;;;;0.40;0.40;;;17.40;71.10;;;;;;5076267;28;20407;-69
2023/01/01 11:43:23;;;;;;;0.30;0.30;;;17.30;72.00;;;;;;5075840;28;20416;-69
2023/01/01 11:45:51;;;;;;;0.90;0.90;;;17.20;72.20;;;;;;5076051;28;20400;-70
2023/01/01 11:48:27;;;;;;;0.40;0.40;;;17.00;73.60;;;;;;5074372;28;20928;-70
2023/01/01 11:50:55;;;;;;;0.50;0.50;;;16.80;73.20;;;;;;5076298;28;20821;-70
2023/01/01 11:53:21;;;;;;;0.50;0.50;;;16.70;72.00;;;;;;5075976;28;20432;-70
2023/01/01 11:56:05;;;;;;;0.50;0.50;;;16.50;74.10;;;;;;5075948;28;20412;-70
2023/01/01 11:58:49;;;;;;;1.73;0.63;;;16.30;74.90;;;;;;5076201;28;20173;-69
2023/01/01 12:01:25;;;;;;;1.13;0.50;;;16.10;74.90;;;;;;5075890;28;20543;-70
2023/01/01 12:04:01;;;;;;;1.70;1.60;;;16.00;74.00;;;;;;5075743;28;20399;-68
2023/01/01 12:06:37;;;;;;;0.83;0.83;;;15.80;75.50;;;;;;5076081;28;20420;-70
2023/01/01 12:09:24;;;;;;;0.73;0.73;;;15.70;77.60;;;;;;5074620;28;20413;-70
2023/01/01 12:12:04;;;;;;;0.30;0.30;;;15.60;74.70;;;;;;5074398;28;20526;-68
2023/01/01 12:14:57;;;;;;;0.73;0.73;;;15.50;75.70;;;;;;5075548;28;20405;-70
2023/01/01 12:17:41;;;;;;;0.93;0.93;;;15.40;77.30;;;;;;5075769;28;20904;-70
2023/01/01 12:20:27;;;;;;;0.40;0.40;;;15.30;75.00;;;;;;5075718;28;20422;-70
2023/01/01 12:22:57;;;;;;;0.47;0.47;;;15.00;75.90;;;;;;5075551;28;20411;-70
2023/01/01 12:25:27;;;;;;;1.10;1.00;;;15.00;74.30;;;;;;5075624;28;20422;-69
2023/01/01 12:27:56;;;;;;;0.50;0.50;;;14.90;78.00;;;;;;5075459;28;20491;-70
2023/01/01 12:30:43;;;;;;;0.40;0.40;;;14.90;77.30;;;;;;5075224;28;20409;-69
2023/01/01 12:33:08;;;;;;;0.30;0.30;;;14.80;77.60;;;;;;5075270;28;20888;-69
2023/01/01 12:35:51;;;;;;;0.50;0.50;;;14.80;77.10;;;;;;5075112;28;20396;-68
2023/01/01 12:38:32;;;;;;;0.40;0.40;;;14.80;76.40;;;;;;5075468;28;20696;-69
2023/01/01 12:41:24;;;;;;;0.93;0.93;;;14.80;76.50;;;;;;5075095;28;20458;-70
2023/01/01 12:44:14;;;;;;;0.40;0.40;;;14.80;75.50;;;;;;5075236;28;20400;-69
2023/01/01 12:46:44;;;;;;;0.50;0.50;;;14.80;78.30;;;;;;5074965;28;20395;-69
2023/01/01 12:49:10;;;;;;;0.47;0.47;;;14.70;78.60;;;;;;5075153;28;20487;-70
2023/01/01 12:51:58;;;;;;;4.23;0.60;;;14.70;76.80;;;;;;5075040;28;20570;-70
2023/01/01 12:54:47;;;;;;;0.40;0.40;;;14.70;77.10;;;;;;5074720;28;20211;-68
2023/01/01 12:57:31;;;;;;;0.70;0.70;;;14.70;76.60;;;;;;5074904;28;20400;-68
2023/01/01 13:00:01;;;;;;;0.63;0.63;;;14.70;75.50;;;;;;5073905;28;20416;-70
2023/01/01 13:02:35;;;;;;;0.40;0.40;;;14.80;74.80;;;;;;5074517;28;20459;-70
2023/01/01 13:05:25;;;;;;;0.60;0.60;;;14.70;76.20;;;;;;5074579;28;20771;-70
2023/01/01 13:07:57;;;;;;;0.40;0.40;;;14.70;74.40;;;;;;5073987;28;20448;-68
2023/01/01 13:10:34;;;;;;;0.40;0.40;;;14.80;73.90;;;;;;5074665;28;20397;-70
2023/01/01 13:13:00;;;;;;;0.60;0.60;;;14.90;74.40;;;;;;5074620;28;20389;-70
2023/01/01 13:15:47;;;;;;;0.40;0.40;;;14.90;77.70;;;;;;5074258;28;20891;-70
2023/01/01 13:18:12;;;;;;;0.60;0.60;;;14.80;77.10;;;;;;5074670;28;20483;-70